Time;durP1;ratioP1;P1;durP2;ratioP2;P2;SDS_P1;SDS_P2;PMS_P1;PMS_P2;Temp;Humidity;BMP_temperature;BMP_pressure;BME280_temperature;BME280_humidity;BME280_pressure;Samples;Min_cycle;Max_cycle;Signal;HPM_P1;HPM_P2
2022/07/10 00:02:11;;;;;;;7.70;1.05;;;15.50;99.50;;;;;;5084429;28;39368;-52
2022/07/10 00:04:38;;;;;;;6.00;1.08;;;15.40;99.40;;;;;;5083394;28;37287;-51
2022/07/10 00:07:09;;;;;;;6.10;1.10;;;15.40;99.40;;;;;;5083603;28;36481;-53
2022/07/10 00:09:36;;;;;;;10.00;1.17;;;15.40;99.60;;;;;;5083759;28;37446;-53
2022/07/10 00:12:06;;;;;;;7.45;1.00;;;15.40;99.80;;;;;;5084412;28;39817;-54
2022/07/10 00:14:33;;;;;;;7.55;1.50;;;15.40;99.90;;;;;;5082664;28;36206;-53
2022/07/10 00:17:01;;;;;;;7.35;1.67;;;15.40;99.90;;;;;;5083437;28;37670;-52
2022/07/10 00:19:28;;;;;;;12.32;1.75;;;15.50;99.90;;;;;;5083596;28;37743;-52
2022/07/10 00:21:55;;;;;;;6.10;1.85;;;15.50;99.90;;;;;;5083856;28;38363;-53
2022/07/10 00:24:23;;;;;;;6.15;1.15;;;15.50;99.90;;;;;;5082925;28;38891;-51
2022/07/10 00:26:50;;;;;;;7.65;1.90;;;15.50;99.90;;;;;;5084056;28;37909;-53
2022/07/10 00:29:19;;;;;;;7.25;1.40;;;15.50;99.90;;;;;;5083004;28;36990;-53
2022/07/10 00:31:46;;;;;;;17.42;2.20;;;15.50;99.90;;;;;;5083369;28;36618;-52
2022/07/10 00:34:13;;;;;;;7.22;1.20;;;15.50;99.90;;;;;;5083556;28;37877;-53
2022/07/10 00:36:41;;;;;;;8.23;1.63;;;15.40;99.90;;;;;;5082220;28;36632;-53
2022/07/10 00:39:08;;;;;;;7.57;1.35;;;15.40;99.90;;;;;;5083139;28;37453;-51
2022/07/10 00:41:35;;;;;;;7.03;1.77;;;15.50;99.90;;;;;;5082882;28;37529;-50
2022/07/10 00:44:04;;;;;;;6.75;1.60;;;15.50;99.90;;;;;;5082729;28;36027;-49
2022/07/10 00:46:33;;;;;;;8.40;1.45;;;15.50;99.90;;;;;;5083047;28;36389;-53
2022/07/10 00:49:01;;;;;;;9.40;1.65;;;15.60;99.90;;;;;;5083382;28;37763;-53
2022/07/10 00:51:30;;;;;;;5.60;1.23;;;15.50;99.90;;;;;;5082529;28;36569;-53
2022/07/10 00:53:58;;;;;;;9.57;1.48;;;15.50;99.90;;;;;;5082230;28;37381;-51
2022/07/10 00:56:27;;;;;;;6.38;1.58;;;15.50;99.90;;;;;;5075101;28;35500;-54
2022/07/10 00:58:55;;;;;;;6.95;1.63;;;15.50;99.90;;;;;;5061521;28;37560;-53
2022/07/10 01:01:25;;;;;;;8.10;2.05;;;15.50;99.90;;;;;;5061632;28;37641;-52
2022/07/10 01:03:54;;;;;;;9.40;1.55;;;15.50;99.90;;;;;;5062345;28;37379;-52
2022/07/10 01:06:21;;;;;;;7.28;1.77;;;15.50;99.90;;;;;;5061801;28;36825;-50
2022/07/10 01:08:49;;;;;;;8.23;1.48;;;15.50;99.90;;;;;;5061970;28;38544;-53
2022/07/10 01:11:17;;;;;;;8.23;1.88;;;15.50;99.90;;;;;;5062497;28;36612;-53
2022/07/10 01:13:44;;;;;;;7.15;1.30;;;15.50;99.90;;;;;;5062513;28;37342;-52
2022/07/10 01:16:12;;;;;;;5.25;1.35;;;15.40;99.90;;;;;;5062586;28;36719;-54
2022/07/10 01:18:40;;;;;;;8.63;1.90;;;15.40;99.90;;;;;;5062143;28;38335;-52
2022/07/10 01:21:24;;;;;;;7.20;1.30;;;15.40;99.90;;;;;;5060827;28;37948;-52
2022/07/10 01:23:52;;;;;;;6.35;1.50;;;15.40;99.90;;;;;;5061709;28;37534;-52
2022/07/10 01:26:21;;;;;;;6.35;1.35;;;15.40;99.90;;;;;;5061522;28;36850;-52
2022/07/10 01:28:50;;;;;;;7.38;1.10;;;15.30;99.90;;;;;;5061852;28;37820;-53
2022/07/10 01:31:21;;;;;;;8.43;1.20;;;15.30;99.90;;;;;;5061404;28;39474;-51
2022/07/10 01:33:48;;;;;;;6.50;1.17;;;15.30;99.90;;;;;;5061549;28;37337;-51
2022/07/10 01:36:17;;;;;;;7.10;1.10;;;15.30;99.80;;;;;;5061282;28;35292;-52
2022/07/10 01:38:45;;;;;;;3.42;0.70;;;15.30;99.90;;;;;;5061868;28;38257;-53
2022/07/10 01:41:12;;;;;;;8.15;1.05;;;15.20;99.80;;;;;;5061473;28;38750;-51
2022/07/10 01:43:42;;;;;;;7.10;1.33;;;15.20;99.70;;;;;;5061953;28;39294;-50
2022/07/10 01:46:10;;;;;;;7.28;1.35;;;15.20;99.60;;;;;;5061786;28;37195;-51
2022/07/10 01:48:41;;;;;;;6.80;1.83;;;15.20;99.50;;;;;;5062026;28;37446;-52
2022/07/10 01:51:09;;;;;;;7.22;1.10;;;15.20;99.50;;;;;;5060752;28;37628;-53
2022/07/10 01:53:39;;;;;;;10.68;1.50;;;15.10;99.60;;;;;;5061783;28;37546;-49
2022/07/10 01:56:09;;;;;;;7.03;1.30;;;15.10;99.40;;;;;;5061039;28;36374;-52
2022/07/10 01:58:36;;;;;;;5.90;1.27;;;15.10;99.50;;;;;;5061771;28;38670;-50
2022/07/10 02:01:05;;;;;;;6.88;1.80;;;15.10;99.60;;;;;;5060160;28;36405;-52
2022/07/10 02:06:17;;;;;;;8.57;1.50;;;15.00;99.70;;;;;;5061606;28;39064;-52
2022/07/10 02:08:46;;;;;;;8.73;1.10;;;15.00;99.80;;;;;;5061910;28;37483;-51
2022/07/10 02:11:13;;;;;;;5.50;1.02;;;15.00;99.80;;;;;;5059722;28;38369;-51
2022/07/10 02:13:41;;;;;;;8.40;1.52;;;15.00;99.80;;;;;;5061957;28;36234;-51
2022/07/10 02:16:09;;;;;;;5.72;1.13;;;14.90;99.80;;;;;;5060960;28;36578;-52
2022/07/10 02:18:37;;;;;;;6.00;1.17;;;14.90;99.90;;;;;;5060880;28;37416;-51
2022/07/10 02:21:05;;;;;;;8.52;1.30;;;14.90;99.90;;;;;;5060474;28;37770;-52
2022/07/10 02:23:33;;;;;;;8.23;1.48;;;14.90;99.90;;;;;;5062074;28;36444;-53
2022/07/10 02:26:02;;;;;;;11.73;2.38;;;14.90;99.90;;;;;;5061677;28;37105;-52
2022/07/10 02:28:30;;;;;;;9.15;1.50;;;14.90;99.90;;;;;;5060893;28;38195;-53
2022/07/10 02:30:57;;;;;;;9.10;1.67;;;14.90;99.90;;;;;;5061372;28;37545;-52
2022/07/10 02:33:24;;;;;;;6.85;1.45;;;14.90;99.90;;;;;;5061784;28;37320;-52
2022/07/10 02:35:52;;;;;;;5.45;1.10;;;14.90;99.80;;;;;;5061309;28;37584;-51
2022/07/10 02:38:19;;;;;;;6.88;1.20;;;14.90;99.80;;;;;;5059902;28;38229;-52
2022/07/10 02:40:47;;;;;;;7.05;1.25;;;14.90;99.70;;;;;;5060711;28;38159;-52
2022/07/10 02:43:15;;;;;;;5.57;1.10;;;15.00;99.70;;;;;;5060972;28;37184;-52
2022/07/10 02:45:43;;;;;;;9.18;1.80;;;15.00;99.50;;;;;;5060149;28;37598;-52
2022/07/10 02:48:10;;;;;;;9.02;1.40;;;15.00;99.50;;;;;;5061031;28;36969;-53
2022/07/10 02:50:37;;;;;;;7.72;1.13;;;15.00;99.40;;;;;;5059957;28;37738;-54
2022/07/10 02:53:04;;;;;;;9.10;1.30;;;15.00;99.50;;;;;;5061485;28;36130;-53
2022/07/10 02:55:32;;;;;;;7.80;1.48;;;15.00;99.70;;;;;;5060454;28;36611;-52
2022/07/10 02:58:00;;;;;;;7.57;1.10;;;14.90;99.70;;;;;;5081329;27;37951;-51
2022/07/10 03:00:29;;;;;;;10.65;1.75;;;15.00;99.70;;;;;;5084071;28;36766;-51
2022/07/10 03:02:57;;;;;;;8.65;1.63;;;15.00;99.70;;;;;;5083084;28;37452;-52
2022/07/10 03:05:24;;;;;;;5.78;1.67;;;15.00;99.80;;;;;;5084863;28;36409;-51
2022/07/10 03:07:52;;;;;;;9.77;2.05;;;15.00;99.80;;;;;;5083892;28;37683;-52
2022/07/10 03:10:19;;;;;;;4.93;1.10;;;15.10;99.90;;;;;;5083477;28;38804;-53
2022/07/10 03:12:46;;;;;;;9.32;1.63;;;15.10;99.90;;;;;;5082995;28;37541;-51
2022/07/10 03:15:14;;;;;;;7.70;1.42;;;15.20;99.90;;;;;;5083917;28;37189;-51
2022/07/10 03:17:43;;;;;;;9.50;2.22;;;15.20;99.90;;;;;;5083525;28;38044;-50
2022/07/10 03:20:11;;;;;;;9.30;1.70;;;15.20;99.90;;;;;;5084206;28;38583;-53
2022/07/10 03:22:39;;;;;;;5.40;0.93;;;15.20;99.90;;;;;;5083137;28;38332;-52
2022/07/10 03:25:07;;;;;;;7.15;1.77;;;15.30;99.90;;;;;;5083665;28;36186;-51
2022/07/10 03:27:34;;;;;;;6.82;1.38;;;15.30;99.90;;;;;;5084153;28;37487;-51
2022/07/10 03:30:02;;;;;;;10.40;1.70;;;15.30;99.90;;;;;;5084135;28;37685;-51
2022/07/10 03:32:29;;;;;;;7.40;1.27;;;15.30;99.90;;;;;;5083092;28;39295;-53
2022/07/10 03:34:57;;;;;;;8.40;1.23;;;15.30;99.90;;;;;;5083537;28;37956;-51
2022/07/10 03:37:25;;;;;;;9.05;1.30;;;15.40;99.90;;;;;;5082964;28;36184;-53
2022/07/10 03:39:52;;;;;;;7.40;1.20;;;15.40;99.90;;;;;;5083994;28;37720;-53
2022/07/10 03:42:20;;;;;;;9.82;1.40;;;15.40;99.90;;;;;;5083399;28;38218;-51
2022/07/10 03:44:47;;;;;;;5.75;1.20;;;15.40;99.90;;;;;;5083295;28;35352;-53
2022/07/10 03:47:14;;;;;;;10.07;1.95;;;15.50;99.90;;;;;;5083427;28;38183;-52
2022/07/10 03:49:42;;;;;;;13.00;1.95;;;15.50;99.90;;;;;;5083070;28;37518;-52
2022/07/10 03:52:10;;;;;;;9.40;2.05;;;15.50;99.90;;;;;;5083628;28;39127;-51
2022/07/10 03:54:38;;;;;;;9.15;1.52;;;15.50;99.90;;;;;;5083938;28;37836;-51
2022/07/10 03:59:50;;;;;;;7.82;2.03;;;15.60;99.90;;;;;;5083468;28;37342;-52
2022/07/10 04:02:18;;;;;;;10.02;2.13;;;15.60;99.90;;;;;;5082918;28;38097;-51
2022/07/10 04:04:45;;;;;;;9.82;1.38;;;15.60;99.90;;;;;;5082146;28;37199;-52
2022/07/10 04:07:14;;;;;;;5.88;1.23;;;15.60;99.90;;;;;;5082663;28;36989;-52
2022/07/10 04:09:41;;;;;;;8.25;1.58;;;15.60;99.90;;;;;;5082703;28;36552;-52
2022/07/10 04:12:09;;;;;;;5.72;1.05;;;15.70;99.90;;;;;;5083735;28;37741;-52
2022/07/10 04:14:36;;;;;;;9.05;1.40;;;15.70;99.90;;;;;;5082456;28;36726;-53
2022/07/10 04:17:04;;;;;;;12.50;2.38;;;15.70;99.90;;;;;;5083060;28;36286;-51
2022/07/10 04:19:31;;;;;;;13.45;1.92;;;15.70;99.90;;;;;;5082141;28;37958;-53
2022/07/10 04:21:58;;;;;;;6.38;1.30;;;15.70;99.90;;;;;;5083039;28;37347;-52
2022/07/10 04:24:27;;;;;;;12.48;1.50;;;15.70;99.90;;;;;;5083015;28;35432;-52
2022/07/10 04:26:55;;;;;;;6.18;1.42;;;15.70;99.90;;;;;;5083478;28;38781;-52
2022/07/10 04:29:22;;;;;;;11.45;1.65;;;15.70;99.90;;;;;;5082710;27;38738;-50
2022/07/10 04:31:49;;;;;;;11.07;1.60;;;15.70;99.90;;;;;;5082638;28;38705;-51
2022/07/10 04:34:17;;;;;;;10.57;1.73;;;15.80;99.90;;;;;;5082499;28;35223;-52
2022/07/10 04:36:44;;;;;;;9.23;1.55;;;15.80;99.90;;;;;;5082375;28;38133;-51
2022/07/10 04:39:12;;;;;;;13.13;1.85;;;15.80;99.90;;;;;;5082748;28;38203;-52
2022/07/10 04:41:40;;;;;;;9.05;1.80;;;15.80;99.90;;;;;;5082887;28;36349;-52
2022/07/10 04:44:08;;;;;;;15.68;2.53;;;15.80;99.90;;;;;;5082300;28;36787;-52
2022/07/10 04:46:35;;;;;;;7.65;1.58;;;15.80;99.90;;;;;;5081300;28;37729;-53
2022/07/10 04:49:03;;;;;;;9.85;1.60;;;15.80;99.90;;;;;;5082299;28;38105;-51
2022/07/10 04:51:30;;;;;;;10.77;2.03;;;15.80;99.90;;;;;;5083122;28;37105;-52
2022/07/10 04:53:58;;;;;;;11.00;2.28;;;15.80;99.90;;;;;;5081846;28;37878;-51
2022/07/10 04:56:25;;;;;;;6.95;1.30;;;15.90;99.90;;;;;;5081222;28;37372;-52
2022/07/10 04:58:54;;;;;;;11.00;1.73;;;15.90;99.90;;;;;;5082322;28;37289;-53
2022/07/10 05:01:21;;;;;;;9.10;1.60;;;15.90;99.90;;;;;;5081934;28;36214;-53
2022/07/10 05:03:48;;;;;;;10.35;2.20;;;15.90;99.90;;;;;;5082254;28;36457;-53
2022/07/10 05:06:16;;;;;;;9.60;1.50;;;15.90;99.90;;;;;;5081938;28;37441;-52
2022/07/10 05:08:43;;;;;;;10.70;1.60;;;15.90;99.90;;;;;;5081565;28;38556;-53
2022/07/10 05:11:11;;;;;;;10.20;1.80;;;15.90;99.90;;;;;;5081358;28;37169;-53
2022/07/10 05:13:39;;;;;;;9.95;1.52;;;15.90;99.90;;;;;;5081927;28;36793;-53
2022/07/10 05:16:08;;;;;;;8.10;1.50;;;15.90;99.90;;;;;;5080479;28;36377;-51
2022/07/10 05:18:35;;;;;;;7.43;1.75;;;15.90;99.90;;;;;;5082429;28;38532;-52
2022/07/10 05:21:02;;;;;;;9.02;1.73;;;15.90;99.90;;;;;;5081035;28;37366;-53
2022/07/10 05:23:30;;;;;;;11.98;2.05;;;15.90;99.90;;;;;;5081880;27;37043;-53
2022/07/10 05:25:57;;;;;;;10.18;1.63;;;15.90;99.90;;;;;;5080953;28;36462;-53
2022/07/10 05:28:25;;;;;;;8.02;1.40;;;16.00;99.90;;;;;;5080676;28;38103;-52
2022/07/10 05:30:52;;;;;;;12.18;1.98;;;16.00;99.90;;;;;;5081628;27;38494;-51
2022/07/10 05:33:21;;;;;;;10.27;1.67;;;16.00;99.90;;;;;;5082652;28;35353;-52
2022/07/10 05:35:48;;;;;;;9.40;1.63;;;16.00;99.90;;;;;;5082157;28;37441;-53
2022/07/10 05:38:17;;;;;;;8.93;1.60;;;16.00;99.90;;;;;;5081790;28;40423;-53
2022/07/10 05:40:45;;;;;;;9.15;2.05;;;16.00;99.90;;;;;;5080999;28;38005;-53
2022/07/10 05:43:12;;;;;;;13.27;2.13;;;16.00;99.90;;;;;;5080999;28;37270;-52
2022/07/10 05:45:40;;;;;;;8.52;1.30;;;16.10;99.90;;;;;;5081353;28;38402;-51
2022/07/10 05:48:07;;;;;;;11.55;1.70;;;16.10;99.90;;;;;;5081362;28;38507;-51
2022/07/10 05:50:35;;;;;;;9.32;1.90;;;16.10;99.90;;;;;;5082106;28;37292;-52
2022/07/10 05:53:03;;;;;;;15.38;1.70;;;16.10;99.90;;;;;;5081734;28;36461;-53
2022/07/10 05:55:30;;;;;;;8.65;1.77;;;16.10;99.90;;;;;;5081035;28;37411;-52
2022/07/10 05:57:58;;;;;;;5.63;1.30;;;16.10;99.90;;;;;;5080740;28;37261;-52
2022/07/10 06:00:26;;;;;;;7.32;1.42;;;16.10;99.90;;;;;;5081211;28;37490;-52
2022/07/10 06:02:54;;;;;;;12.40;1.67;;;16.10;99.90;;;;;;5080189;28;37233;-52
2022/07/10 06:05:21;;;;;;;6.80;1.40;;;16.10;99.90;;;;;;5081168;27;37316;-53
2022/07/10 06:07:50;;;;;;;9.60;1.88;;;16.10;99.90;;;;;;5080165;28;38583;-52
2022/07/10 06:10:17;;;;;;;8.50;1.65;;;16.10;99.90;;;;;;5081076;28;36278;-52
2022/07/10 06:12:45;;;;;;;8.02;1.75;;;16.10;99.90;;;;;;5080047;28;37857;-52
2022/07/10 06:15:12;;;;;;;10.85;1.80;;;16.10;99.90;;;;;;5080988;28;37459;-52
2022/07/10 06:17:40;;;;;;;5.63;1.45;;;16.10;99.90;;;;;;5080544;28;38040;-50
2022/07/10 06:20:11;;;;;;;10.93;2.03;;;16.10;99.90;;;;;;5080542;28;37716;-51
2022/07/10 06:22:39;;;;;;;9.95;2.30;;;16.10;99.90;;;;;;5080241;28;37600;-52
2022/07/10 06:25:11;;;;;;;9.27;1.27;;;16.20;99.90;;;;;;5080508;28;37451;-53
2022/07/10 06:27:39;;;;;;;6.97;1.42;;;16.20;99.90;;;;;;5080738;28;38585;-52
2022/07/10 06:30:07;;;;;;;9.40;1.33;;;16.20;99.90;;;;;;5080824;28;38841;-52
2022/07/10 06:32:34;;;;;;;8.70;1.35;;;16.30;99.90;;;;;;5081096;28;37431;-52
2022/07/10 06:35:02;;;;;;;5.88;1.35;;;16.30;99.90;;;;;;5084845;28;36921;-52
2022/07/10 06:37:30;;;;;;;8.63;1.58;;;16.40;99.90;;;;;;5083760;28;37760;-52
2022/07/10 06:39:57;;;;;;;6.18;1.10;;;16.40;99.90;;;;;;5084788;27;37230;-52
2022/07/10 06:42:26;;;;;;;10.27;1.58;;;16.40;99.90;;;;;;5084055;28;36479;-52
2022/07/10 06:44:53;;;;;;;5.75;0.88;;;16.40;99.90;;;;;;5083495;28;36558;-53
2022/07/10 06:50:09;;;;;;;9.10;1.27;;;16.50;99.90;;;;;;5084709;28;39267;-52
2022/07/10 06:52:37;;;;;;;5.85;1.33;;;16.50;99.90;;;;;;5084555;28;35886;-52
2022/07/10 06:55:05;;;;;;;6.72;1.00;;;16.50;99.90;;;;;;5084331;28;37672;-53
2022/07/10 06:57:35;;;;;;;4.93;1.27;;;16.50;99.90;;;;;;5083778;28;38531;-50
2022/07/10 07:00:03;;;;;;;5.10;1.13;;;16.50;99.90;;;;;;5084683;28;37275;-51
2022/07/10 07:02:30;;;;;;;7.68;1.88;;;16.50;99.90;;;;;;5085277;27;35887;-50
2022/07/10 07:04:57;;;;;;;4.68;1.23;;;16.50;99.90;;;;;;5083857;28;38632;-51
2022/07/10 07:07:25;;;;;;;5.88;1.20;;;16.40;99.90;;;;;;5082608;28;36667;-52
2022/07/10 07:09:52;;;;;;;7.05;1.30;;;16.30;99.90;;;;;;5083246;28;37846;-52
2022/07/10 07:12:20;;;;;;;7.18;1.42;;;16.30;99.90;;;;;;5083968;28;39314;-53
2022/07/10 07:14:49;;;;;;;4.32;0.90;;;16.20;99.90;;;;;;5083486;28;37662;-52
2022/07/10 07:17:21;;;;;;;4.72;1.17;;;16.20;99.90;;;;;;5083104;28;38658;-52
2022/07/10 07:25:19;;;;;;;5.45;0.95;;;16.10;99.90;;;;;;5084387;28;38323;-53
2022/07/10 07:27:46;;;;;;;7.35;0.90;;;16.00;99.90;;;;;;5082728;28;36681;-49
2022/07/10 07:30:16;;;;;;;5.75;1.15;;;16.00;99.90;;;;;;5083115;28;37508;-51
2022/07/10 07:32:45;;;;;;;5.93;1.20;;;16.00;99.90;;;;;;5082983;28;35420;-52
2022/07/10 07:35:14;;;;;;;9.07;1.77;;;15.90;99.90;;;;;;5083076;28;38539;-52
2022/07/10 07:37:43;;;;;;;11.15;1.35;;;16.00;99.90;;;;;;5082735;28;38675;-49
2022/07/10 07:40:12;;;;;;;5.80;1.63;;;16.00;99.90;;;;;;5082275;28;36933;-53
2022/07/10 07:42:40;;;;;;;7.53;1.50;;;16.00;99.90;;;;;;5082385;28;36835;-51
2022/07/10 07:45:09;;;;;;;5.97;1.15;;;16.00;99.90;;;;;;5082266;28;39200;-51
2022/07/10 07:47:47;;;;;;;9.65;1.63;;;16.10;99.90;;;;;;5082616;28;37695;-52
2022/07/10 07:50:19;;;;;;;7.35;1.30;;;16.10;99.90;;;;;;5083348;28;37216;-53
2022/07/10 07:52:46;;;;;;;7.95;1.10;;;16.20;99.90;;;;;;5083921;28;36851;-53
2022/07/10 07:55:15;;;;;;;7.38;1.48;;;16.20;99.90;;;;;;5082607;28;37629;-52
2022/07/10 07:57:43;;;;;;;7.90;1.50;;;16.30;99.90;;;;;;5082951;28;37501;-53
2022/07/10 08:00:12;;;;;;;5.82;1.52;;;16.30;99.90;;;;;;5083212;28;38817;-53
2022/07/10 08:02:40;;;;;;;5.88;1.00;;;16.30;99.90;;;;;;5083516;28;35382;-52
2022/07/10 08:05:10;;;;;;;5.80;1.25;;;16.30;99.90;;;;;;5083589;28;36172;-52
2022/07/10 08:07:39;;;;;;;3.97;0.98;;;16.40;99.90;;;;;;5082387;28;38868;-52
2022/07/10 08:10:10;;;;;;;9.30;1.35;;;16.40;99.90;;;;;;5083017;28;37905;-52
2022/07/10 08:12:38;;;;;;;6.95;0.88;;;16.40;99.90;;;;;;5083049;28;37516;-53
2022/07/10 08:15:07;;;;;;;5.18;1.20;;;16.40;99.90;;;;;;5083076;28;37485;-51
2022/07/10 08:17:35;;;;;;;2.05;0.50;;;16.50;99.90;;;;;;5082232;28;38345;-51
2022/07/10 08:20:02;;;;;;;2.60;0.40;;;16.50;99.90;;;;;;5082029;28;37293;-52
2022/07/10 08:22:31;;;;;;;2.30;0.85;;;16.50;99.90;;;;;;5082463;28;36902;-53
2022/07/10 08:24:58;;;;;;;3.53;0.60;;;16.50;99.90;;;;;;5083094;28;37219;-53
2022/07/10 08:27:26;;;;;;;3.92;0.50;;;16.50;99.90;;;;;;5082842;28;38545;-51
2022/07/10 08:29:53;;;;;;;4.45;0.77;;;16.50;99.90;;;;;;5083630;28;37299;-53
2022/07/10 08:32:21;;;;;;;3.30;0.68;;;16.50;99.90;;;;;;5082865;28;35910;-52
2022/07/10 08:34:48;;;;;;;3.70;0.80;;;16.40;99.90;;;;;;5083134;28;37388;-53
2022/07/10 08:37:16;;;;;;;4.82;0.70;;;16.50;99.90;;;;;;5081568;28;38017;-52
2022/07/10 08:39:45;;;;;;;4.97;0.70;;;16.50;99.90;;;;;;5081715;28;37614;-51
2022/07/10 08:42:13;;;;;;;2.85;0.68;;;16.50;99.90;;;;;;5083202;28;36640;-50
2022/07/10 08:44:40;;;;;;;4.43;1.10;;;16.50;99.90;;;;;;5081836;28;37589;-52
2022/07/10 08:47:08;;;;;;;3.85;0.80;;;16.50;99.90;;;;;;5082154;28;37740;-51
2022/07/10 08:49:36;;;;;;;3.03;0.60;;;16.50;99.90;;;;;;5081417;28;37364;-53
2022/07/10 08:52:06;;;;;;;5.53;1.10;;;16.60;99.90;;;;;;5082377;28;35563;-53
2022/07/10 08:54:34;;;;;;;8.63;1.40;;;16.60;99.90;;;;;;5081869;28;37550;-51
2022/07/10 08:57:04;;;;;;;5.60;1.13;;;16.60;99.90;;;;;;5080503;27;37957;-53
2022/07/10 08:59:32;;;;;;;4.68;1.23;;;16.70;99.90;;;;;;5082524;28;37138;-52
2022/07/10 09:02:00;;;;;;;6.63;1.33;;;16.80;99.90;;;;;;5082930;28;36117;-54
2022/07/10 09:04:27;;;;;;;6.47;1.63;;;16.80;99.90;;;;;;5081790;28;38317;-52
2022/07/10 09:06:56;;;;;;;6.50;1.05;;;16.80;99.90;;;;;;5082595;28;37844;-53
2022/07/10 09:09:24;;;;;;;8.40;1.63;;;16.80;99.90;;;;;;5080843;28;37369;-52
2022/07/10 09:11:57;;;;;;;6.00;1.40;;;16.80;99.90;;;;;;5081631;28;36518;-53
2022/07/10 09:14:27;;;;;;;7.60;1.38;;;16.80;99.90;;;;;;5082353;28;38422;-52
2022/07/10 09:16:55;;;;;;;6.13;1.48;;;16.80;99.90;;;;;;5082089;28;37546;-53
2022/07/10 09:19:24;;;;;;;4.68;1.17;;;16.70;99.90;;;;;;5081766;28;38169;-51
2022/07/10 09:21:53;;;;;;;3.00;0.93;;;16.70;99.90;;;;;;5081189;28;36754;-52
2022/07/10 09:24:21;;;;;;;3.08;0.90;;;16.60;99.90;;;;;;5081311;28;37641;-54
2022/07/10 09:27:00;;;;;;;5.68;1.20;;;16.60;99.90;;;;;;5082557;28;39046;-52
2022/07/10 09:29:29;;;;;;;8.40;1.40;;;16.60;99.90;;;;;;5081514;28;35939;-52
2022/07/10 09:31:57;;;;;;;7.25;1.42;;;16.50;99.90;;;;;;5081512;28;38680;-53
2022/07/10 09:34:41;;;;;;;3.70;1.20;;;16.50;99.90;;;;;;5081416;28;39558;-53
2022/07/10 09:37:23;;;;;;;5.30;1.40;;;16.50;99.90;;;;;;5080692;28;37787;-52
2022/07/10 09:39:58;;;;;;;4.28;1.60;;;16.50;99.90;;;;;;5081160;28;37374;-51
2022/07/10 09:42:27;;;;;;;4.32;1.17;;;16.50;99.90;;;;;;5080283;28;37516;-53
2022/07/10 09:45:17;;;;;;;7.88;1.55;;;16.50;99.90;;;;;;5081155;28;38981;-52
2022/07/10 09:47:55;;;;;;;5.63;1.42;;;16.50;99.90;;;;;;5083110;27;20088;-53
2022/07/10 09:50:25;;;;;;;6.95;1.58;;;16.50;99.90;;;;;;5081459;28;38539;-52
2022/07/10 09:52:54;;;;;;;7.63;1.48;;;16.50;99.90;;;;;;5081476;28;36534;-52
2022/07/10 09:55:23;;;;;;;7.70;1.73;;;16.50;99.90;;;;;;5081663;27;38543;-53
2022/07/10 09:57:55;;;;;;;5.72;1.83;;;16.50;99.90;;;;;;5081051;28;38228;-53
2022/07/10 10:00:26;;;;;;;8.73;2.05;;;16.50;99.90;;;;;;5081744;28;37059;-53
2022/07/10 10:02:57;;;;;;;7.25;1.73;;;16.60;99.90;;;;;;5080900;28;36664;-53
2022/07/10 10:05:35;;;;;;;8.35;1.77;;;16.50;99.90;;;;;;5080725;28;38613;-53
2022/07/10 10:08:10;;;;;;;7.45;1.85;;;16.60;99.90;;;;;;5080474;28;37677;-53
2022/07/10 10:10:41;;;;;;;7.38;1.70;;;16.60;99.90;;;;;;5080715;28;38532;-53
2022/07/10 10:13:10;;;;;;;9.00;1.75;;;16.60;99.90;;;;;;5080202;28;36424;-53
2022/07/10 10:15:40;;;;;;;8.77;2.05;;;16.70;99.90;;;;;;5081843;27;36364;-49
2022/07/10 10:18:08;;;;;;;8.00;1.83;;;16.70;99.90;;;;;;5081301;28;37609;-53
2022/07/10 10:20:41;;;;;;;7.93;2.08;;;16.70;99.90;;;;;;5080379;28;36294;-52
2022/07/10 10:23:13;;;;;;;7.97;1.67;;;16.80;99.90;;;;;;5080731;28;36992;-51
2022/07/10 10:25:41;;;;;;;12.95;1.90;;;16.80;99.90;;;;;;5081109;28;37348;-53
2022/07/10 10:28:11;;;;;;;7.38;2.05;;;16.80;99.90;;;;;;5080719;28;38736;-51
2022/07/10 10:30:41;;;;;;;9.15;1.77;;;16.80;99.90;;;;;;5081491;28;35481;-53
2022/07/10 10:33:47;;;;;;;9.60;2.03;;;16.80;99.90;;;;;;5080796;28;37412;-53
2022/07/10 10:36:41;;;;;;;9.77;1.90;;;16.80;99.90;;;;;;5079128;28;37182;-53
2022/07/10 10:39:13;;;;;;;;;;;16.90;99.90;;;;;;5081942;28;37508;-51
2022/07/10 10:41:42;;;;;;;8.75;2.03;;;17.00;99.90;;;;;;5079884;28;37692;-51
2022/07/10 10:44:35;;;;;;;6.38;1.88;;;17.10;99.90;;;;;;5080247;28;37445;-53
2022/07/10 10:47:06;;;;;;;10.38;2.05;;;17.20;99.90;;;;;;5081246;28;39029;-53
2022/07/10 10:49:54;;;;;;;9.10;1.50;;;17.30;99.90;;;;;;5078848;28;37715;-52
2022/07/10 10:52:22;;;;;;;7.40;1.40;;;17.30;99.90;;;;;;5080688;28;36157;-52
2022/07/10 10:55:08;;;;;;;5.40;1.70;;;17.30;99.90;;;;;;5080675;28;36133;-52
2022/07/10 10:57:51;;;;;;;5.28;1.60;;;17.30;99.90;;;;;;5081689;28;37938;-53
2022/07/10 11:00:38;;;;;;;5.30;1.40;;;17.30;99.90;;;;;;5080056;28;37718;-53
2022/07/10 11:03:24;;;;;;;5.97;1.33;;;17.30;99.90;;;;;;5081921;28;36454;-53
2022/07/10 11:05:52;;;;;;;5.88;1.60;;;17.20;99.90;;;;;;5080688;27;36838;-53
2022/07/10 11:08:43;;;;;;;7.10;1.60;;;17.30;99.90;;;;;;5081303;28;39243;-53
2022/07/10 11:11:40;;;;;;;9.38;3.70;;;17.40;99.90;;;;;;5081288;28;37639;-53
2022/07/10 11:14:10;;;;;;;7.78;2.50;;;17.40;99.90;;;;;;5080706;28;37659;-53
2022/07/10 11:16:47;;;;;;;8.45;2.53;;;17.50;99.90;;;;;;5080322;28;36504;-53
2022/07/10 11:19:21;;;;;;;8.45;1.77;;;17.50;99.90;;;;;;5080781;27;37787;-51
2022/07/10 11:22:08;;;;;;;8.07;2.00;;;17.40;99.90;;;;;;5083959;28;38768;-53
2022/07/10 11:24:46;;;;;;;9.23;2.00;;;17.40;99.90;;;;;;5081687;28;37851;-53
2022/07/10 11:27:27;;;;;;;5.60;1.23;;;17.30;99.90;;;;;;5083037;27;36615;-53
2022/07/10 11:29:59;;;;;;;4.30;1.30;;;17.40;99.90;;;;;;5083260;28;39348;-51
2022/07/10 11:32:26;;;;;;;6.13;1.80;;;17.40;99.90;;;;;;5084329;28;38348;-51
2022/07/10 11:34:56;;;;;;;5.47;1.60;;;17.40;99.90;;;;;;5083963;28;38115;-53
2022/07/10 11:37:29;;;;;;;8.63;1.67;;;17.40;99.90;;;;;;5083603;28;36079;-52
2022/07/10 11:40:10;;;;;;;5.78;1.27;;;17.40;99.90;;;;;;5084057;27;37642;-52
2022/07/10 11:42:53;;;;;;;9.30;2.00;;;17.30;99.90;;;;;;5082871;28;39300;-53
2022/07/10 11:45:32;;;;;;;8.43;1.60;;;17.30;99.90;;;;;;5082830;28;37226;-53
2022/07/10 11:48:01;;;;;;;6.15;1.73;;;17.30;99.90;;;;;;5084630;27;36856;-54
2022/07/10 11:50:36;;;;;;;5.90;1.50;;;17.40;99.90;;;;;;5082852;28;37318;-51
2022/07/10 11:53:04;;;;;;;7.95;2.03;;;17.30;99.90;;;;;;5083502;28;38005;-52
2022/07/10 11:55:36;;;;;;;5.80;1.63;;;17.30;99.90;;;;;;5083034;28;37997;-50
2022/07/10 11:58:17;;;;;;;5.32;1.40;;;17.30;99.90;;;;;;5083359;28;36192;-52
2022/07/10 12:00:45;;;;;;;7.13;2.13;;;17.30;99.90;;;;;;5083145;28;35929;-53
2022/07/10 12:03:20;;;;;;;5.38;1.50;;;17.30;99.90;;;;;;5082379;28;38247;-52
2022/07/10 12:05:50;;;;;;;6.03;1.88;;;17.30;99.90;;;;;;5083008;28;37598;-50
2022/07/10 12:08:18;;;;;;;8.57;2.63;;;17.30;99.90;;;;;;5082506;28;36508;-53
2022/07/10 12:10:46;;;;;;;5.55;1.60;;;17.20;99.90;;;;;;5083006;28;37705;-52
2022/07/10 12:13:15;;;;;;;7.70;1.67;;;17.30;99.90;;;;;;5082701;28;36405;-52
2022/07/10 12:15:43;;;;;;;6.50;1.80;;;17.40;99.90;;;;;;5082336;28;37524;-53
2022/07/10 12:18:18;;;;;;;7.60;2.00;;;17.50;99.90;;;;;;5083239;28;36913;-52
2022/07/10 12:20:47;;;;;;;7.18;2.20;;;17.50;99.90;;;;;;5082732;28;38642;-52
2022/07/10 12:23:16;;;;;;;6.18;1.77;;;17.60;99.90;;;;;;5082749;28;37633;-52
2022/07/10 12:25:44;;;;;;;7.63;2.00;;;17.60;99.90;;;;;;5082891;28;38290;-53
2022/07/10 12:28:13;;;;;;;8.27;2.20;;;17.50;99.90;;;;;;5082801;28;38193;-51
2022/07/10 12:30:41;;;;;;;7.78;2.25;;;17.50;99.90;;;;;;5081770;27;38615;-52
2022/07/10 12:33:10;;;;;;;9.45;1.90;;;17.50;99.90;;;;;;5082531;28;38088;-52
2022/07/10 12:35:51;;;;;;;9.77;2.33;;;17.50;99.90;;;;;;5082129;28;37372;-52
2022/07/10 12:38:21;;;;;;;6.30;1.65;;;17.50;99.90;;;;;;5081125;28;35449;-53
2022/07/10 12:40:49;;;;;;;8.40;2.00;;;17.40;99.90;;;;;;5082207;28;37820;-52
2022/07/10 12:43:29;;;;;;;8.63;2.05;;;17.40;99.90;;;;;;5083422;28;37922;-52
2022/07/10 12:46:09;;;;;;;7.78;1.90;;;17.30;99.90;;;;;;5083238;28;36841;-52
2022/07/10 12:48:37;;;;;;;8.07;1.60;;;17.20;99.90;;;;;;5081661;28;36925;-52
2022/07/10 12:51:20;;;;;;;5.20;1.55;;;17.20;99.90;;;;;;5081999;28;37881;-52
2022/07/10 12:53:52;;;;;;;7.18;1.48;;;17.20;99.90;;;;;;5082800;28;37672;-53
2022/07/10 12:56:30;;;;;;;4.60;1.40;;;17.30;99.90;;;;;;5079972;28;38258;-51
2022/07/10 12:58:58;;;;;;;4.43;1.25;;;17.30;99.90;;;;;;5082690;28;36207;-52
2022/07/10 13:01:26;;;;;;;6.75;1.50;;;17.20;99.90;;;;;;5081994;28;37615;-52
2022/07/10 13:04:02;;;;;;;5.55;1.45;;;17.20;99.90;;;;;;5082859;28;37688;-53
2022/07/10 13:06:35;;;;;;;7.13;1.80;;;17.20;99.90;;;;;;5081523;28;37733;-52
2022/07/10 13:09:18;;;;;;;7.30;1.95;;;17.20;99.90;;;;;;5082230;28;36736;-51
2022/07/10 13:11:45;;;;;;;5.57;1.80;;;17.10;99.90;;;;;;5081581;28;37598;-51
2022/07/10 13:14:13;;;;;;;8.63;2.03;;;17.10;99.90;;;;;;5082243;28;36371;-53